Flight Track Log - Related Links

Times and Time Zones

All times are in EDT time to prevent confusion due to time zone crossing. See the RPA4910 flight status page for this flight to view local times or setup timezone preferences in your user account.

Time Position Orientation Groundspeed Altitude Reporting Facility
EDT Latitude Longitude Course Direction KTS MPH feet Rate Location/Type
Fri 01:56:09 AM 40.6333 -74.2167 90° East 233 268 3,000  Level New York TRACON
Fri 01:57:15 AM 40.6667 -74.3000 298° West 234 269 5,300 1,620 Climbing New York TRACON
Fri 01:58:00 AM 41.0624 -74.1365 North  Level FlightAware Approximate
Fri 01:58:52 AM 40.7603 -74.2594 18° North 253 291 7,400  Level Boston Center
Fri 01:59:00 AM 41.1522 -74.1235 74° East  Level FlightAware Approximate
Fri 01:59:52 AM 40.8033 -74.1731 57° Northeast 235 270 9,000  Level Boston Center
Fri 02:00:00 AM 41.1792 -74.0019 74° East  Level FlightAware Approximate
Fri 02:00:52 AM 40.8628 -74.0978 44° Northeast 267 307 10,300  Level Boston Center
Fri 02:01:00 AM 41.2000 -73.8870 90° East  Level FlightAware Approximate
Fri 02:01:52 AM 40.9242 -74.0225 43° Northeast 283 326 11,500  Level Boston Center
Fri 02:02:52 AM 40.9836 -73.9442 45° Northeast 290 334 12,800 1,250 Climbing Boston Center
Fri 02:03:52 AM 41.0472 -73.8686 42° Northeast 302 348 14,000 1,100 Climbing Boston Center
Fri 02:04:52 AM 41.1106 -73.7928 42° Northeast 307 353 15,000 1,050 Climbing Boston Center
Fri 02:05:52 AM 41.1961 -73.7753 North 290 334 16,100 1,000 Climbing Boston Center
Fri 02:06:52 AM 41.2778 -73.7631 North 297 342 17,000 950 Climbing Boston Center
Fri 02:07:52 AM 41.3569 -73.7453 10° North 292 336 18,000 900 Climbing Boston Center
Fri 02:08:52 AM 41.4406 -73.7333 North 292 336 18,800 850 Climbing Boston Center
Fri 02:09:52 AM 41.5261 -73.7156 North 297 342 19,700 850 Climbing Boston Center
Fri 02:10:52 AM 41.6075 -73.7033 North 297 342 20,500 650 Climbing Boston Center
Fri 02:11:52 AM 41.6911 -73.6883 North 292 336 21,000 250 Climbing Boston Center
Fri 02:12:52 AM 41.7789 -73.6733 North 308 354 21,000  Level Boston Center
Fri 02:13:52 AM 41.8728 -73.6583 North 323 372 21,000  Level Boston Center
Fri 02:14:52 AM 41.9667 -73.6408 North 334 384 21,000  Level Boston Center
Fri 02:15:52 AM 42.0608 -73.6203 North 334 384 21,000  Level Boston Center
Fri 02:16:52 AM 42.1611 -73.5997 North 350 403 21,000  Level Boston Center
Fri 02:17:52 AM 42.2592 -73.5789 North 350 403 21,000  Level Boston Center
Fri 02:18:52 AM 42.3553 -73.5694 North 350 403 21,000  Level Boston Center
Fri 02:19:52 AM 42.4511 -73.5514 North 350 403 21,000  Level Boston Center
Fri 02:20:52 AM 42.5494 -73.5336 North 350 403 21,000  Level Boston Center
Fri 02:21:52 AM 42.6475 -73.5156 North 350 403 21,000  Level Boston Center
Fri 02:22:52 AM 42.7456 -73.4917 10° North 350 403 21,000  Level Boston Center
Fri 02:23:52 AM 42.8439 -73.4736 North 350 403 21,000  Level Boston Center
Fri 02:24:52 AM 42.9356 -73.4553 North 343 395 21,000  Level Boston Center
Fri 02:25:52 AM 43.0297 -73.4369 North 343 395 21,000  Level Boston Center
Fri 02:26:52 AM 43.1278 -73.4186 North 348 400 21,000  Level Boston Center
Fri 02:27:52 AM 43.2281 -73.3975 North 354 407 21,000  Level Boston Center
Fri 02:28:52 AM 43.3261 -73.3792 North 354 407 21,000  Level Boston Center
Fri 02:29:52 AM 43.4219 -73.3578 North 354 407 21,000 -50 Level Boston Center
Fri 02:30:52 AM 43.5203 -73.3419 North 354 407 20,900 -1,150 Descending Boston Center
Fri 02:31:52 AM 43.6225 -73.3206 North 354 407 18,700 -2,100 Descending Boston Center
Fri 02:32:52 AM 43.7100 -73.3161 North 348 400 16,700 -2,200 Descending Boston Center
Fri 02:33:52 AM 43.8183 -73.3089 North 353 406 14,300 -1,900 Descending Boston Center
Fri 02:34:52 AM 43.9142 -73.3019 North 346 398 12,900 -1,400 Descending Boston Center
Fri 02:35:52 AM 44.0039 -73.2917 North 341 392 11,500 -1,000 Descending Boston Center
Fri 02:36:52 AM 44.0936 -73.2900 North 324 373 10,900 -550 Descending Boston Center
Fri 02:37:52 AM 44.1811 -73.2794 North 318 366 10,400 -1,200 Descending Boston Center
Fri 02:38:52 AM 44.2583 -73.2719 North 298 343 8,500 -1,818 Descending Boston Center
Fri 02:40:04 AM 44.3333 -73.2672 North 267 307 6,400 -1,955 Descending Boston Center
Fri 02:41:04 AM 44.4189 -73.2625 North 257 296 4,200 -2,200 Descending Boston Center

Login

Don't have an account? Register now (free) for customized features, flight alerts, and more!